< Typhoon 196101 1961 Season Typhoon 196103 >
Typhoon 196102 (TESS)
General InformationTrack Information on Google Maps || Disaster Info.ResourceGoogle EarthGE AnimationAtom FeedGeoJSON
Detalied Best Track (Time Zone = UTC)
Year Month Day Hour Lat. Long. Pressure (hPa) Wind (kt) Class Image Chart
1961 3 22 06 8.0 148.0 1004 0 2 -- Chart
1961 3 22 12 7.7 147.0 1006 0 2 -- Chart
1961 3 22 18 7.5 146.2 1006 0 2 -- Chart
1961 3 23 00 7.8 145.5 1006 0 2 -- Chart
1961 3 23 06 8.2 145.4 1004 0 2 -- Chart
1961 3 23 12 8.6 145.2 1006 0 2 -- Chart
1961 3 23 18 8.9 144.9 1004 0 2 -- Chart
1961 3 24 00 9.0 144.2 1005 0 2 -- Chart
1961 3 24 06 8.8 143.7 1003 0 2 -- Chart
1961 3 24 12 8.8 142.6 1003 0 2 -- Chart
1961 3 24 18 8.8 141.7 1002 0 2 -- Chart
1961 3 25 00 8.9 140.6 990 0 9 -- Chart
1961 3 25 06 9.1 139.2 990 0 9 -- Chart
1961 3 25 12 9.2 138.0 985 0 9 -- Chart
1961 3 25 18 9.6 137.0 980 0 9 -- Chart
1961 3 26 00 9.9 136.3 975 0 9 -- Chart
1961 3 26 06 10.4 136.0 975 0 9 -- Chart
1961 3 26 12 10.8 135.8 975 0 9 -- Chart
1961 3 26 18 11.4 135.5 975 0 9 -- Chart
1961 3 27 00 11.9 135.3 960 0 9 -- Chart
1961 3 27 06 12.4 135.2 950 0 9 -- Chart
1961 3 27 12 13.0 135.2 940 0 9 -- Chart
1961 3 27 18 13.3 135.4 940 0 9 -- Chart
1961 3 28 00 13.7 135.7 950 0 9 -- Chart
1961 3 28 06 13.9 135.6 945 0 9 -- Chart
1961 3 28 12 14.4 135.4 940 0 9 -- Chart
1961 3 28 18 14.8 135.2 940 0 9 -- Chart
1961 3 29 00 15.1 134.6 940 0 9 -- Chart
1961 3 29 06 15.7 134.4 945 0 9 -- Chart
1961 3 29 12 16.4 134.6 950 0 9 -- Chart
1961 3 29 18 17.0 134.6 955 0 9 -- Chart
1961 3 30 00 17.7 134.6 965 0 9 -- Chart
1961 3 30 06 18.5 134.4 980 0 9 -- Chart
1961 3 30 12 19.8 134.4 990 0 9 -- Chart
1961 3 30 18 21.0 135.0 1000 0 9 -- Chart
1961 3 31 00 22.0 136.0 1005 0 9 -- Chart
1961 3 31 06 22.9 137.9 1010 0 6 -- Chart
1961 3 31 12 23.4 139.8 1014 0 6 -- Chart
1961 3 31 18 23.8 141.2 1012 0 6 -- Chart
1961 4 1 00 24.0 143.0 1014 0 6 -- Chart
1961 4 1 06 24.5 144.6 1012 0 6 -- Chart
1961 4 1 12 25.7 146.9 1012 0 6 -- Chart
1961 4 1 18 26.8 148.8 1012 0 6 -- Chart
1961 4 2 00 29.0 153.0 1014 0 6 -- Chart
1961 4 2 06 31.3 158.0 1010 0 6 -- Chart
1961 4 2 12 31.7 160.3 1010 0 6 -- Chart
Japan Meteorological Agency Best Track Data | Correction Date : 1990-10-17
< Typhoon 196101 1961 Season Typhoon 196103 >

Help